Oriana — ZCDU9 — position and weather

sailwx.info

Track history (hours):
 
Tides and Currents Weather Stations Pressure Air Temp Water Temp Dewpoint Dewpoint Depression Visibility Wind Speed Wind Dir Waves Ship Positions

Oriana (Bermuda)

Last reported at 2014-Oct-31 20:33 UTC. Time now 2014-Oct-31 21:10 UTC.
Position N 36°09' W 005°22'.

Length 261 m; beam 32.2 m; draft 8.2 m.

Type: Ship. MMSI: 310529000.

Date/timePositionNaut miles runAvg speedWind from/ knotsBaromVisibWave heightAir tempDewpointWater temp
2014-Oct-31 20:33N 36°09' W 005°22'0 0.0
2014-Oct-31 19:31N 36°09' W 005°22'0 0.0
2014-Oct-31 18:28N 36°09' W 005°22'0 0.0
2014-Oct-31 17:31N 36°09' W 005°22'0 0.0
2014-Oct-31 16:30N 36°09' W 005°22'0 0.0
2014-Oct-31 15:27N 36°09' W 005°22'0 0.0
2014-Oct-31 14:30N 36°09' W 005°22'0 0.0
2014-Oct-31 13:33N 36°09' W 005°22'1 1.3
2014-Oct-31 12:31N 36°08' W 005°23'1212.3
2014-Oct-31 11:33N 35°57' W 005°29'14918.5
2014-Oct-31 03:28N 36°25' W 008°31'1617.2
2014-Oct-31 02:30N 36°28' W 008°51'2117.3
2014-Oct-31 01:19N 36°33' W 009°16'1317.0
2014-Oct-31 00:33N 36°42' W 009°27'1716.7
2014-Oct-30 23:33N 36°58' W 009°35'1717.2
2014-Oct-30 22:33N 37°15' W 009°34'2137.9
2014-Oct-30 22:00N 37°36' W 009°30'511.3 140 / 271020.510.8 2.022.017.222.0
2014-Oct-30 21:33N 37°31' W 009°32'1717.2
2014-Oct-30 20:33N 37°49' W 009°30'1818.0
2014-Oct-30 19:33N 38°06' W 009°27'1817.4
2014-Oct-30 18:33N 38°24' W 009°25'1616.5
2014-Oct-30 17:33N 38°40' W 009°19'10 6.6
2014-Oct-30 16:06N 38°43' W 009°08'0 0.0
2014-Oct-30 13:32N 38°43' W 009°08'0 0.0
2014-Oct-30 08:33N 38°42' W 009°08'1110.3
2014-Oct-30 07:32N 38°39' W 009°20'1413.9
2014-Oct-30 06:33N 38°37' W 009°38'4 6.3
2014-Oct-30 06:00N 38°36' W 009°42'1925.5 090 / 181015.2 20.018.419.0
2014-Oct-30 05:15N 38°55' W 009°44'58514.0
2014-Oct-28 11:33N 48°19' W 006°15'1616.7
2014-Oct-28 10:33N 48°34' W 006°03'1916.0
2014-Oct-28 09:21N 48°51' W 005°49'1314.3
2014-Oct-28 08:27N 48°59' W 005°34'1314.1
2014-Oct-28 07:33N 49°05' W 005°16'1813.3
2014-Oct-28 06:10N 49°15' W 004°53'2813.8
2014-Oct-28 04:09N 49°29' W 004°16'1016.5
2014-Oct-28 03:32N 49°34' W 004°02'1717.4
2014-Oct-28 02:33N 49°42' W 003°39'1817.8
2014-Oct-28 01:34N 49°51' W 003°15'1717.1
2014-Oct-28 00:33N 49°59' W 002°52'1615.9
2014-Oct-27 23:34N 50°04' W 002°28'1414.4
2014-Oct-27 22:34N 50°11' W 002°08'1413.6
2014-Oct-27 21:33N 50°17' W 001°50'1413.9
2014-Oct-27 20:33N 50°23' W 001°30'1514.8
2014-Oct-27 19:33N 50°30' W 001°10'1414.1
2014-Oct-27 18:33N 50°43' W 000°59'1313.4
2014-Oct-27 17:33N 50°48' W 001°18'7 0.6
2014-Oct-27 07:13N 50°53' W 001°24'0 0.3
2014-Oct-27 06:33N 50°53' W 001°24'8 7.8
2014-Oct-27 05:33N 50°46' W 001°19'1414.0
2014-Oct-27 04:33N 50°41' W 000°58'1313.4
2014-Oct-27 03:33N 50°35' W 000°39'1918.2
2014-Oct-27 02:32N 50°33' W 000°10'1717.1
2014-Oct-27 01:33N 50°34' E 000°16'1616.1
2014-Oct-27 00:34N 50°39' E 000°40'1414.1
2014-Oct-26 23:33N 50°47' E 000°58'1313.1
2014-Oct-26 22:34N 50°56' E 001°14'1514.7
2014-Oct-26 21:33N 51°06' E 001°31'1716.8
2014-Oct-26 20:34N 51°18' E 001°50'1312.8
2014-Oct-26 19:34N 51°22' E 002°09'1615.5
2014-Oct-26 18:33N 51°23' E 002°34'1515.3
2014-Oct-26 17:33N 51°23' E 002°59'9 7.9
2014-Oct-26 16:24N 51°20' E 003°13'0 0.0
2014-Oct-26 15:27N 51°20' E 003°13'0 0.0
2014-Oct-26 14:15N 51°20' E 003°13'0 0.0
2014-Oct-26 13:12N 51°20' E 003°13'0 0.0
2014-Oct-26 12:24N 51°20' E 003°13'0 0.0
2014-Oct-26 11:33N 51°20' E 003°13'0 0.0
2014-Oct-26 09:18N 51°20' E 003°13'0 0.0
2014-Oct-26 08:09N 51°20' E 003°13'0 0.0
2014-Oct-26 05:33N 51°20' E 003°13'0 0.0
2014-Oct-26 02:21N 51°20' E 003°13'3 3.9
2014-Oct-26 01:33N 51°23' E 003°10'7 7.4
2014-Oct-26 00:33N 51°23' E 002°58'10 9.8
2014-Oct-25 23:33N 51°23' E 002°42'10 9.5
2014-Oct-25 22:27N 51°34' E 002°42'11 5.9
2014-Oct-25 20:33N 51°42' E 002°54'10 9.9
2014-Oct-25 19:33N 51°33' E 002°47'1110.7
2014-Oct-25 18:30N 51°22' E 002°48'1516.3
2014-Oct-25 17:33N 51°24' E 003°12'1515.1
2014-Oct-25 16:33N 51°26' E 003°36'1212.2
2014-Oct-25 15:33N 51°22' E 003°54'9 9.0
2014-Oct-25 14:33N 51°23' E 004°09'5 5.5
2014-Oct-25 13:34N 51°21' E 004°17'0 0.0
2014-Oct-25 12:33N 51°21' E 004°17'2 2.3
2014-Oct-25 11:33N 51°19' E 004°19'3 3.4
2014-Oct-25 10:32N 51°16' E 004°21'0 0.0
2014-Oct-25 09:32N 51°16' E 004°21'0 0.0
2014-Oct-25 08:32N 51°16' E 004°21'0 0.0
2014-Oct-25 07:32N 51°16' E 004°21'0 0.0
2014-Oct-25 06:32N 51°16' E 004°21'0 0.0
2014-Oct-25 05:26N 51°16' E 004°21'0 0.0
2014-Oct-25 04:32N 51°16' E 004°21'0 0.0
2014-Oct-25 03:32N 51°16' E 004°21'0 0.0
2014-Oct-25 02:32N 51°16' E 004°21'0 0.0
2014-Oct-25 01:23N 51°16' E 004°21'0 0.0
2014-Oct-25 00:29N 51°16' E 004°21'0 0.0
2014-Oct-24 23:32N 51°16' E 004°21'0 0.0
2014-Oct-24 22:32N 51°16' E 004°21'0 0.0
2014-Oct-24 21:32N 51°16' E 004°21'0 0.0
2014-Oct-24 20:29N 51°16' E 004°21'0 0.0
2014-Oct-24 19:32N 51°16' E 004°21'0 0.0
2014-Oct-24 18:32N 51°16' E 004°21'0 0.0
2014-Oct-24 17:28N 51°16' E 004°21'0 0.0
2014-Oct-24 16:33N 51°16' E 004°21'0 0.0
2014-Oct-24 15:26N 51°16' E 004°21'0 0.0
2014-Oct-24 14:32N 51°16' E 004°21'0 0.0
2014-Oct-24 13:29N 51°16' E 004°21'0 0.0
2014-Oct-24 12:32N 51°16' E 004°21'0 0.0
2014-Oct-24 11:26N 51°16' E 004°21'0 0.0
2014-Oct-24 10:34N 51°16' E 004°21'2 1.7
2014-Oct-24 09:33N 51°17' E 004°20'4 3.9
2014-Oct-24 08:34N 51°21' E 004°17'1 0.6
2014-Oct-24 07:34N 51°21' E 004°16'9 8.6
2014-Oct-24 06:33N 51°23' E 004°03'7 7.4
2014-Oct-24 05:34N 51°21' E 003°52'1110.8
2014-Oct-24 04:33N 51°26' E 003°36'1312.6
2014-Oct-24 03:33N 51°25' E 003°16'1716.8
2014-Oct-24 02:33N 51°22' E 002°50'1110.6
2014-Oct-24 01:32N 51°22' E 002°32'2121.0
2014-Oct-24 00:33N 51°12' E 002°03'2222.2
2014-Oct-23 23:33N 51°00' E 001°34'2120.6
2014-Oct-23 22:33N 50°41' E 001°22'2120.0
2014-Oct-23 21:29N 50°31' E 000°52'1920.9
2014-Oct-23 20:33N 50°26' E 000°23'2619.8
2014-Oct-23 19:15N 50°24' W 000°18'1419.7
2014-Oct-23 18:33N 50°31' W 000°36'1919.0
2014-Oct-23 17:33N 50°43' W 000°59'1414.3
2014-Oct-23 16:33N 50°50' W 001°19'6 4.6
2014-Oct-23 15:15N 50°54' W 001°26'0 0.0
2014-Oct-23 14:27N 50°54' W 001°26'0 0.0
2014-Oct-23 13:18N 50°54' W 001°26'0 0.0
2014-Oct-23 12:33N 50°54' W 001°26'0 0.0
2014-Oct-23 11:24N 50°54' W 001°26'0 0.0
2014-Oct-23 10:24N 50°54' W 001°26'0 0.0
2014-Oct-23 09:33N 50°54' W 001°26'0 0.0
2014-Oct-23 08:21N 50°54' W 001°26'0 0.0
2014-Oct-23 07:33N 50°54' W 001°26'0 0.0
2014-Oct-23 06:05N 50°54' W 001°26'0 0.7
2014-Oct-23 05:33N 50°54' W 001°25'9 8.9
2014-Oct-23 04:34N 50°46' W 001°18'1414.1
2014-Oct-23 03:34N 50°40' W 000°58'1313.5
2014-Oct-23 02:34N 50°31' W 001°13'4916.1
2014-Oct-22 23:33N 50°14' W 002°25'2019.8
2014-Oct-22 22:34N 50°07' W 002°54'2020.1
2014-Oct-22 21:33N 49°55' W 003°18'  
Track history (hours):
 
Tides and Currents Weather Stations Pressure Air Temp Water Temp Dewpoint Dewpoint Depression Visibility Wind Speed Wind Dir Waves Ship Positions

Oriana (Bermuda)

Last reported at 2014-Oct-31 20:33 UTC. Time now 2014-Oct-31 21:10 UTC.
Position N 36°09' W 005°22'.

Length 261 m; beam 32.2 m; draft 8.2 m.

Type: Ship. MMSI: 310529000.

Date/timePositionNaut miles runAvg speedWind from/ knotsBaromVisibWave heightAir tempDewpointWater temp
2014-Oct-31 20:33N 36°09' W 005°22'0 0.0
2014-Oct-31 19:31N 36°09' W 005°22'0 0.0
2014-Oct-31 18:28N 36°09' W 005°22'0 0.0
2014-Oct-31 17:31N 36°09' W 005°22'0 0.0
2014-Oct-31 16:30N 36°09' W 005°22'0 0.0
2014-Oct-31 15:27N 36°09' W 005°22'0 0.0
2014-Oct-31 14:30N 36°09' W 005°22'0 0.0
2014-Oct-31 13:33N 36°09' W 005°22'1 1.3
2014-Oct-31 12:31N 36°08' W 005°23'1212.3
2014-Oct-31 11:33N 35°57' W 005°29'14918.5
2014-Oct-31 03:28N 36°25' W 008°31'1617.2
2014-Oct-31 02:30N 36°28' W 008°51'2117.3
2014-Oct-31 01:19N 36°33' W 009°16'1317.0
2014-Oct-31 00:33N 36°42' W 009°27'1716.7
2014-Oct-30 23:33N 36°58' W 009°35'1717.2
2014-Oct-30 22:33N 37°15' W 009°34'2137.9
2014-Oct-30 22:00N 37°36' W 009°30'511.3 140 / 271020.510.8 2.022.017.222.0
2014-Oct-30 21:33N 37°31' W 009°32'1717.2
2014-Oct-30 20:33N 37°49' W 009°30'1818.0
2014-Oct-30 19:33N 38°06' W 009°27'1817.4
2014-Oct-30 18:33N 38°24' W 009°25'1616.5
2014-Oct-30 17:33N 38°40' W 009°19'10 6.6
2014-Oct-30 16:06N 38°43' W 009°08'0 0.0
2014-Oct-30 13:32N 38°43' W 009°08'0 0.0
2014-Oct-30 08:33N 38°42' W 009°08'1110.3
2014-Oct-30 07:32N 38°39' W 009°20'1413.9
2014-Oct-30 06:33N 38°37' W 009°38'4 6.3
2014-Oct-30 06:00N 38°36' W 009°42'1925.5 090 / 181015.2 20.018.419.0
2014-Oct-30 05:15N 38°55' W 009°44'58514.0
2014-Oct-28 11:33N 48°19' W 006°15'1616.7
2014-Oct-28 10:33N 48°34' W 006°03'1916.0
2014-Oct-28 09:21N 48°51' W 005°49'1314.3
2014-Oct-28 08:27N 48°59' W 005°34'1314.1
2014-Oct-28 07:33N 49°05' W 005°16'1813.3
2014-Oct-28 06:10N 49°15' W 004°53'2813.8
2014-Oct-28 04:09N 49°29' W 004°16'1016.5
2014-Oct-28 03:32N 49°34' W 004°02'1717.4
2014-Oct-28 02:33N 49°42' W 003°39'1817.8
2014-Oct-28 01:34N 49°51' W 003°15'1717.1
2014-Oct-28 00:33N 49°59' W 002°52'1615.9
2014-Oct-27 23:34N 50°04' W 002°28'1414.4
2014-Oct-27 22:34N 50°11' W 002°08'1413.6
2014-Oct-27 21:33N 50°17' W 001°50'1413.9
2014-Oct-27 20:33N 50°23' W 001°30'1514.8
2014-Oct-27 19:33N 50°30' W 001°10'1414.1
2014-Oct-27 18:33N 50°43' W 000°59'1313.4
2014-Oct-27 17:33N 50°48' W 001°18'7 0.6
2014-Oct-27 07:13N 50°53' W 001°24'0 0.3
2014-Oct-27 06:33N 50°53' W 001°24'8 7.8
2014-Oct-27 05:33N 50°46' W 001°19'1414.0
2014-Oct-27 04:33N 50°41' W 000°58'1313.4
2014-Oct-27 03:33N 50°35' W 000°39'1918.2
2014-Oct-27 02:32N 50°33' W 000°10'1717.1
2014-Oct-27 01:33N 50°34' E 000°16'1616.1
2014-Oct-27 00:34N 50°39' E 000°40'1414.1
2014-Oct-26 23:33N 50°47' E 000°58'1313.1
2014-Oct-26 22:34N 50°56' E 001°14'1514.7
2014-Oct-26 21:33N 51°06' E 001°31'1716.8
2014-Oct-26 20:34N 51°18' E 001°50'1312.8
2014-Oct-26 19:34N 51°22' E 002°09'1615.5
2014-Oct-26 18:33N 51°23' E 002°34'1515.3
2014-Oct-26 17:33N 51°23' E 002°59'9 7.9
2014-Oct-26 16:24N 51°20' E 003°13'0 0.0
2014-Oct-26 15:27N 51°20' E 003°13'0 0.0
2014-Oct-26 14:15N 51°20' E 003°13'0 0.0
2014-Oct-26 13:12N 51°20' E 003°13'0 0.0
2014-Oct-26 12:24N 51°20' E 003°13'0 0.0
2014-Oct-26 11:33N 51°20' E 003°13'0 0.0
2014-Oct-26 09:18N 51°20' E 003°13'0 0.0
2014-Oct-26 08:09N 51°20' E 003°13'0 0.0
2014-Oct-26 05:33N 51°20' E 003°13'0 0.0
2014-Oct-26 02:21N 51°20' E 003°13'3 3.9
2014-Oct-26 01:33N 51°23' E 003°10'7 7.4
2014-Oct-26 00:33N 51°23' E 002°58'10 9.8
2014-Oct-25 23:33N 51°23' E 002°42'10 9.5
2014-Oct-25 22:27N 51°34' E 002°42'11 5.9
2014-Oct-25 20:33N 51°42' E 002°54'10 9.9
2014-Oct-25 19:33N 51°33' E 002°47'1110.7
2014-Oct-25 18:30N 51°22' E 002°48'1516.3
2014-Oct-25 17:33N 51°24' E 003°12'1515.1
2014-Oct-25 16:33N 51°26' E 003°36'1212.2
2014-Oct-25 15:33N 51°22' E 003°54'9 9.0
2014-Oct-25 14:33N 51°23' E 004°09'5 5.5
2014-Oct-25 13:34N 51°21' E 004°17'0 0.0
2014-Oct-25 12:33N 51°21' E 004°17'2 2.3
2014-Oct-25 11:33N 51°19' E 004°19'3 3.4
2014-Oct-25 10:32N 51°16' E 004°21'0 0.0
2014-Oct-25 09:32N 51°16' E 004°21'0 0.0
2014-Oct-25 08:32N 51°16' E 004°21'0 0.0
2014-Oct-25 07:32N 51°16' E 004°21'0 0.0
2014-Oct-25 06:32N 51°16' E 004°21'0 0.0
2014-Oct-25 05:26N 51°16' E 004°21'0 0.0
2014-Oct-25 04:32N 51°16' E 004°21'0 0.0
2014-Oct-25 03:32N 51°16' E 004°21'0 0.0
2014-Oct-25 02:32N 51°16' E 004°21'0 0.0
2014-Oct-25 01:23N 51°16' E 004°21'0 0.0
2014-Oct-25 00:29N 51°16' E 004°21'0 0.0
2014-Oct-24 23:32N 51°16' E 004°21'0 0.0
2014-Oct-24 22:32N 51°16' E 004°21'0 0.0
2014-Oct-24 21:32N 51°16' E 004°21'0 0.0
2014-Oct-24 20:29N 51°16' E 004°21'0 0.0
2014-Oct-24 19:32N 51°16' E 004°21'0 0.0
2014-Oct-24 18:32N 51°16' E 004°21'0 0.0
2014-Oct-24 17:28N 51°16' E 004°21'0 0.0
2014-Oct-24 16:33N 51°16' E 004°21'0 0.0
2014-Oct-24 15:26N 51°16' E 004°21'0 0.0
2014-Oct-24 14:32N 51°16' E 004°21'0 0.0
2014-Oct-24 13:29N 51°16' E 004°21'0 0.0
2014-Oct-24 12:32N 51°16' E 004°21'0 0.0
2014-Oct-24 11:26N 51°16' E 004°21'0 0.0
2014-Oct-24 10:34N 51°16' E 004°21'2 1.7
2014-Oct-24 09:33N 51°17' E 004°20'4 3.9
2014-Oct-24 08:34N 51°21' E 004°17'1 0.6
2014-Oct-24 07:34N 51°21' E 004°16'9 8.6
2014-Oct-24 06:33N 51°23' E 004°03'7 7.4
2014-Oct-24 05:34N 51°21' E 003°52'1110.8
2014-Oct-24 04:33N 51°26' E 003°36'1312.6
2014-Oct-24 03:33N 51°25' E 003°16'1716.8
2014-Oct-24 02:33N 51°22' E 002°50'1110.6
2014-Oct-24 01:32N 51°22' E 002°32'2121.0
2014-Oct-24 00:33N 51°12' E 002°03'2222.2
2014-Oct-23 23:33N 51°00' E 001°34'2120.6
2014-Oct-23 22:33N 50°41' E 001°22'2120.0
2014-Oct-23 21:29N 50°31' E 000°52'1920.9
2014-Oct-23 20:33N 50°26' E 000°23'2619.8
2014-Oct-23 19:15N 50°24' W 000°18'1419.7
2014-Oct-23 18:33N 50°31' W 000°36'1919.0
2014-Oct-23 17:33N 50°43' W 000°59'1414.3
2014-Oct-23 16:33N 50°50' W 001°19'6 4.6
2014-Oct-23 15:15N 50°54' W 001°26'0 0.0
2014-Oct-23 14:27N 50°54' W 001°26'0 0.0
2014-Oct-23 13:18N 50°54' W 001°26'0 0.0
2014-Oct-23 12:33N 50°54' W 001°26'0 0.0
2014-Oct-23 11:24N 50°54' W 001°26'0 0.0
2014-Oct-23 10:24N 50°54' W 001°26'0 0.0
2014-Oct-23 09:33N 50°54' W 001°26'0 0.0
2014-Oct-23 08:21N 50°54' W 001°26'0 0.0
2014-Oct-23 07:33N 50°54' W 001°26'0 0.0
2014-Oct-23 06:05N 50°54' W 001°26'0 0.7
2014-Oct-23 05:33N 50°54' W 001°25'9 8.9
2014-Oct-23 04:34N 50°46' W 001°18'1414.1
2014-Oct-23 03:34N 50°40' W 000°58'1313.5
2014-Oct-23 02:34N 50°31' W 001°13'4916.1
2014-Oct-22 23:33N 50°14' W 002°25'2019.8
2014-Oct-22 22:34N 50°07' W 002°54'2020.1
2014-Oct-22 21:33N 49°55' W 003°18'  

Dump ship's entire track history